createdAt,value
2023-03-05T00:02:26.728Z,101191.88
2023-03-05T00:04:56.124Z,101196.72
2023-03-05T00:07:28.135Z,101182.44
2023-03-05T00:09:58.027Z,101191.16
2023-03-05T00:12:27.413Z,101184.50
2023-03-05T00:14:56.798Z,101182.78
2023-03-05T00:17:26.275Z,101184.59
2023-03-05T00:19:57.095Z,101180.34
2023-03-05T00:22:29.866Z,101173.69
2023-03-05T00:24:59.161Z,101179.75
2023-03-05T00:27:28.670Z,101172.59
2023-03-05T00:29:58.108Z,101168.25
2023-03-05T00:32:27.632Z,101156.56
2023-03-05T00:34:57.026Z,101156.09
2023-03-05T00:37:29.067Z,101152.81
2023-03-05T00:39:58.627Z,101146.41
2023-03-05T00:42:28.046Z,101147.59
2023-03-05T00:44:57.396Z,101144.22
2023-03-05T00:47:28.444Z,101154.63
2023-03-05T00:49:57.802Z,101145.16
2023-03-05T00:52:29.985Z,101140.56
2023-03-05T00:54:59.597Z,101130.63
2023-03-05T00:57:28.999Z,101137.03
2023-03-05T00:59:58.372Z,101132.56
2023-03-05T01:02:27.875Z,101119.97
2023-03-05T01:04:57.296Z,101118.09
2023-03-05T01:07:29.385Z,101107.06
2023-03-05T01:09:58.808Z,101097.47
2023-03-05T01:12:28.167Z,101098.56
2023-03-05T01:14:57.542Z,101101.97
2023-03-05T01:17:29.785Z,101098.94
2023-03-05T01:19:59.312Z,101096.50
2023-03-05T01:22:31.773Z,101091.56
2023-03-05T01:25:01.150Z,101087.94
2023-03-05T01:27:30.615Z,101077.97
2023-03-05T01:30:00.011Z,101080.63
2023-03-05T01:32:29.637Z,101078.94
2023-03-05T01:34:59.078Z,101070.44
2023-03-05T01:37:31.895Z,101077.00
2023-03-05T01:40:01.367Z,101067.25
2023-03-05T01:42:31.266Z,101050.63
2023-03-05T01:45:06.901Z,101056.22
2023-03-05T01:47:36.345Z,101056.84
2023-03-05T01:50:07.135Z,101047.00
2023-03-05T01:52:43.061Z,101056.88
2023-03-05T01:55:16.431Z,101044.69
2023-03-05T01:57:48.651Z,101042.63
2023-03-05T02:00:20.866Z,101050.50
2023-03-05T02:02:52.545Z,101038.38
2023-03-05T02:05:27.196Z,101042.97
2023-03-05T02:08:02.479Z,101043.44
2023-03-05T02:10:34.721Z,101037.22
2023-03-05T02:13:07.964Z,101028.94
2023-03-05T02:15:38.248Z,101030.75
2023-03-05T02:18:09.016Z,101034.72
2023-03-05T02:20:47.580Z,101026.72
2023-03-05T02:23:22.602Z,101024.88
2023-03-05T02:25:52.192Z,101018.88
2023-03-05T02:28:27.250Z,101024.22
2023-03-05T02:30:57.139Z,101019.66
2023-03-05T02:33:26.854Z,101011.53
2023-03-05T02:35:56.249Z,101008.59
2023-03-05T02:38:28.495Z,101010.94
2023-03-05T02:40:57.919Z,101003.88
2023-03-05T02:43:27.449Z,101000.59
2023-03-05T02:45:57.023Z,100998.53
2023-03-05T02:48:26.485Z,100992.69
2023-03-05T02:50:56.765Z,100992.59
2023-03-05T02:53:29.383Z,100985.88
2023-03-05T02:55:59.241Z,100982.97
2023-03-05T02:58:29.601Z,100979.78
2023-03-05T03:00:59.151Z,100985.03
2023-03-05T03:03:28.647Z,100982.25
2023-03-05T03:05:58.042Z,100979.09
2023-03-05T03:08:30.047Z,100982.31
2023-03-05T03:10:59.434Z,100976.66
2023-03-05T03:13:28.816Z,100972.81
2023-03-05T03:16:04.741Z,100977.91
2023-03-05T03:18:34.281Z,100970.13
2023-03-05T03:21:04.163Z,100968.13
2023-03-05T03:23:37.147Z,100968.72
2023-03-05T03:26:07.227Z,100968.72
2023-03-05T03:28:36.639Z,100963.91
2023-03-05T03:31:06.304Z,100954.13
2023-03-05T03:33:35.790Z,100953.94
2023-03-05T03:36:06.763Z,100949.69
2023-03-05T03:38:38.757Z,100945.38
2023-03-05T03:41:09.537Z,100944.78
2023-03-05T03:43:39.553Z,100941.88
2023-03-05T03:46:09.389Z,100940.31
2023-03-05T03:48:38.830Z,100938.03
2023-03-05T03:51:10.323Z,100931.59
2023-03-05T03:53:42.261Z,100931.75
2023-03-05T03:56:11.644Z,100928.94
2023-03-05T03:58:40.985Z,100923.66
2023-03-05T04:01:10.491Z,100924.22
2023-03-05T04:03:39.899Z,100923.13
2023-03-05T04:06:09.828Z,100924.44
2023-03-05T04:08:42.181Z,100921.00
2023-03-05T04:11:12.217Z,100915.44
2023-03-05T04:13:41.604Z,100919.19
2023-03-05T04:16:11.134Z,100909.38
2023-03-05T04:18:40.622Z,100903.81
2023-03-05T04:21:10.236Z,100905.63
2023-03-05T04:23:42.881Z,100914.56
2023-03-05T04:26:12.296Z,100899.06
2023-03-05T04:28:41.852Z,100904.59
2023-03-05T04:31:11.250Z,100892.13
2023-03-05T04:33:40.633Z,100900.38
2023-03-05T04:36:10.823Z,100893.09
2023-03-05T04:38:42.786Z,100892.59
2023-03-05T04:41:12.215Z,100889.44
2023-03-05T04:43:41.614Z,100880.91
2023-03-05T04:46:11.229Z,100879.03
2023-03-05T04:48:40.823Z,100883.41
2023-03-05T04:51:10.241Z,100882.53
2023-03-05T04:53:39.681Z,100883.50
2023-03-05T04:56:11.872Z,100877.66
2023-03-05T04:58:41.286Z,100873.44
2023-03-05T05:01:10.825Z,100876.00
2023-03-05T05:03:40.426Z,100865.06
2023-03-05T05:06:10.059Z,100870.06
2023-03-05T05:08:39.740Z,100868.50
2023-03-05T05:11:16.619Z,100870.91
2023-03-05T05:13:45.987Z,100873.25
2023-03-05T05:16:16.244Z,100866.41
2023-03-05T05:18:45.669Z,100864.38
2023-03-05T05:21:18.588Z,100866.09
2023-03-05T05:23:48.034Z,100868.59
2023-03-05T05:26:20.092Z,100868.16
2023-03-05T05:28:49.555Z,100861.97
2023-03-05T05:31:20.340Z,100861.38
2023-03-05T05:33:50.124Z,100858.09
2023-03-05T05:36:22.414Z,100856.38
2023-03-05T05:38:51.916Z,100850.66
2023-03-05T05:41:24.172Z,100856.56
2023-03-05T05:43:53.809Z,100853.19
2023-03-05T05:46:24.789Z,100847.53
2023-03-05T05:48:54.368Z,100847.47
2023-03-05T05:51:25.916Z,100848.78
2023-03-05T05:53:55.639Z,100845.63
2023-03-05T05:56:27.856Z,100840.19
2023-03-05T05:58:57.544Z,100844.66
2023-03-05T06:01:29.186Z,100846.28
2023-03-05T06:03:58.830Z,100839.75
2023-03-05T06:06:29.533Z,100845.69
2023-03-05T06:08:59.547Z,100843.16
2023-03-05T06:11:32.274Z,100847.34
2023-03-05T06:14:02.660Z,100838.44
2023-03-05T06:16:32.727Z,100833.22
2023-03-05T06:19:04.579Z,100842.66
2023-03-05T06:21:34.824Z,100844.47
2023-03-05T06:24:04.269Z,100843.94
2023-03-05T06:26:36.309Z,100838.88
2023-03-05T06:29:06.330Z,100844.66
2023-03-05T06:31:37.350Z,100844.41
2023-03-05T06:34:07.408Z,100839.06
2023-03-05T06:36:36.806Z,100843.19
2023-03-05T06:39:06.790Z,100838.69
2023-03-05T06:41:38.807Z,100843.09
2023-03-05T06:44:08.474Z,100842.00
2023-03-05T06:46:40.050Z,100842.13
2023-03-05T06:49:09.823Z,100845.66
2023-03-05T06:51:41.092Z,100844.59
2023-03-05T06:54:12.400Z,100842.41
2023-03-05T06:56:46.576Z,100837.19
2023-03-05T06:59:17.616Z,100828.22
2023-03-05T07:01:47.929Z,100833.56
2023-03-05T07:04:18.749Z,100833.41
2023-03-05T07:06:48.185Z,100836.94
2023-03-05T07:09:18.439Z,100827.63
2023-03-05T07:11:50.369Z,100835.97
2023-03-05T07:14:19.790Z,100827.25
2023-03-05T07:16:50.341Z,100829.75
2023-03-05T07:19:20.070Z,100825.09
2023-03-05T07:21:49.446Z,100826.00
2023-03-05T07:24:18.837Z,100828.38
2023-03-05T07:26:50.793Z,100820.81
2023-03-05T07:29:20.201Z,100812.94
2023-03-05T07:31:49.588Z,100810.16
2023-03-05T07:34:18.995Z,100811.03
2023-03-05T07:36:48.594Z,100810.63
2023-03-05T07:39:19.119Z,100804.94
2023-03-05T07:41:51.806Z,100817.44
2023-03-05T07:44:29.154Z,100806.91
2023-03-05T07:46:58.549Z,100807.03
2023-03-05T07:49:27.939Z,100809.31
2023-03-05T07:51:57.314Z,100812.72
2023-03-05T07:54:26.740Z,100809.50
2023-03-05T07:56:59.713Z,100809.63
2023-03-05T07:59:29.112Z,100810.06
2023-03-05T08:01:58.512Z,100813.66
2023-03-05T08:04:29.990Z,100809.16
2023-03-05T08:06:59.459Z,100808.97
2023-03-05T08:09:28.913Z,100806.75
2023-03-05T08:12:00.897Z,100807.13
2023-03-05T08:14:30.469Z,100804.16
2023-03-05T08:16:59.827Z,100805.81
2023-03-05T08:19:29.748Z,100800.00
2023-03-05T08:21:59.107Z,100804.25
2023-03-05T08:24:29.833Z,100796.94
2023-03-05T08:27:01.846Z,100797.88
2023-03-05T08:29:31.199Z,100795.22
2023-03-05T08:32:00.620Z,100790.16
2023-03-05T08:34:29.968Z,100799.13
2023-03-05T08:36:59.577Z,100797.00
2023-03-05T08:39:30.227Z,100791.69
2023-03-05T08:42:02.157Z,100795.81
2023-03-05T08:44:31.714Z,100807.31
2023-03-05T08:47:01.111Z,100792.72
2023-03-05T08:49:30.539Z,100795.00
2023-03-05T08:51:59.945Z,100803.16
2023-03-05T08:54:29.269Z,100791.47
2023-03-05T08:56:58.803Z,100797.72
2023-03-05T08:59:30.738Z,100790.59
2023-03-05T09:02:03.077Z,100788.09
2023-03-05T09:04:32.544Z,100788.81
2023-03-05T09:07:01.902Z,100789.69
2023-03-05T09:09:33.011Z,100787.88
2023-03-05T09:12:02.671Z,100788.19
2023-03-05T09:14:34.679Z,100795.97
2023-03-05T09:17:05.218Z,100787.69
2023-03-05T09:19:34.662Z,100788.91
2023-03-05T09:22:04.055Z,100779.19
2023-03-05T09:24:34.382Z,100782.25
2023-03-05T09:27:03.800Z,100777.81
2023-03-05T09:29:35.770Z,100778.59
2023-03-05T09:32:05.238Z,100781.34
2023-03-05T09:34:34.697Z,100779.78
2023-03-05T09:37:05.632Z,100775.72
2023-03-05T09:39:35.017Z,100787.13
2023-03-05T09:42:30.465Z,100776.56
2023-03-05T09:45:18.863Z,100770.13
2023-03-05T09:47:55.555Z,100762.59
2023-03-05T09:50:40.474Z,100760.16
2023-03-05T09:53:19.035Z,100759.72
2023-03-05T09:55:52.162Z,100754.25
2023-03-05T09:58:31.132Z,100757.03
2023-03-05T10:01:06.149Z,100754.81
2023-03-05T10:03:48.012Z,100767.69
2023-03-05T10:06:24.012Z,100755.03
2023-03-05T10:08:57.824Z,100756.34
2023-03-05T10:11:42.328Z,100755.03
2023-03-05T10:14:17.349Z,100752.78
2023-03-05T10:17:00.673Z,100748.75
2023-03-05T10:19:49.080Z,100752.16
2023-03-05T10:22:23.452Z,100746.31
2023-03-05T10:25:05.588Z,100741.25
2023-03-05T10:27:45.590Z,100737.22
2023-03-05T10:30:32.736Z,100737.53
2023-03-05T10:33:13.937Z,100733.94
2023-03-05T10:36:05.340Z,100730.78
2023-03-05T10:38:59.934Z,100731.00
2023-03-05T10:41:35.704Z,100718.38
2023-03-05T10:44:12.063Z,100724.03
2023-03-05T10:46:43.020Z,100719.75
2023-03-05T10:49:22.513Z,100715.81
2023-03-05T10:51:55.660Z,100713.16
2023-03-05T10:54:29.922Z,100706.03
2023-03-05T10:57:07.668Z,100704.56
2023-03-05T10:59:37.377Z,100703.78
2023-03-05T11:02:10.095Z,100703.94
2023-03-05T11:04:42.769Z,100700.66
2023-03-05T11:07:37.088Z,100698.19
2023-03-05T11:10:18.998Z,100697.72
2023-03-05T11:12:49.895Z,100693.94
2023-03-05T11:15:32.469Z,100691.28
2023-03-05T11:18:24.185Z,100688.59
2023-03-05T11:21:10.871Z,100687.28
2023-03-05T11:23:40.684Z,100677.38
2023-03-05T11:26:24.435Z,100674.00
2023-03-05T11:29:01.920Z,100669.53
2023-03-05T11:31:33.810Z,100657.88
2023-03-05T11:34:05.215Z,100677.50
2023-03-05T11:36:38.885Z,100661.63
2023-03-05T11:39:14.726Z,100667.63
2023-03-05T11:41:47.519Z,100662.84
2023-03-05T11:44:17.830Z,100652.88
2023-03-05T11:46:50.320Z,100652.84
2023-03-05T11:49:24.230Z,100647.59
2023-03-05T11:52:08.222Z,100652.66
2023-03-05T11:54:45.585Z,100649.22
2023-03-05T11:57:17.165Z,100644.28
2023-03-05T11:59:47.114Z,100648.41
2023-03-05T12:02:23.257Z,100641.84
2023-03-05T12:04:53.946Z,100632.59
2023-03-05T12:07:33.638Z,100635.16
2023-03-05T12:10:03.748Z,100636.13
2023-03-05T12:12:49.655Z,100628.94
2023-03-05T12:15:35.305Z,100632.53
2023-03-05T12:18:20.722Z,100621.34
2023-03-05T12:20:58.176Z,100617.13
2023-03-05T12:23:30.635Z,100614.84
2023-03-05T12:26:03.435Z,100624.19
2023-03-05T12:28:59.565Z,100609.31
2023-03-05T12:31:38.014Z,100607.00
2023-03-05T12:34:38.035Z,100598.63
2023-03-05T12:37:07.571Z,100593.53
2023-03-05T12:40:01.067Z,100582.31
2023-03-05T12:42:48.058Z,100587.44
2023-03-05T12:45:45.521Z,100574.47
2023-03-05T12:48:45.511Z,100567.63
2023-03-05T12:51:36.407Z,100564.09
2023-03-05T12:54:34.106Z,100563.31
2023-03-05T12:57:09.280Z,100561.41
2023-03-05T12:59:46.366Z,100562.09
2023-03-05T13:02:29.937Z,100557.19
2023-03-05T13:05:03.575Z,100555.16
2023-03-05T13:07:33.098Z,100555.50
2023-03-05T13:10:03.013Z,100551.78
2023-03-05T13:12:35.124Z,100544.25
2023-03-05T13:15:06.882Z,100538.88
2023-03-05T13:17:44.427Z,100541.22
2023-03-05T13:20:33.935Z,100541.22
2023-03-05T13:23:07.158Z,100535.03
2023-03-05T13:25:36.596Z,100526.94
2023-03-05T13:28:14.393Z,100526.78
2023-03-05T13:30:48.233Z,100502.50
2023-03-05T13:33:21.512Z,100515.16
2023-03-05T13:35:52.890Z,100503.50
2023-03-05T13:38:31.610Z,100503.31
2023-03-05T13:41:06.736Z,100501.41
2023-03-05T13:43:45.636Z,100499.19
2023-03-05T13:46:15.924Z,100499.28
2023-03-05T13:48:45.462Z,100493.09
2023-03-05T13:51:14.968Z,100491.19
2023-03-05T13:53:44.446Z,100490.94
2023-03-05T13:56:17.997Z,100483.31
2023-03-05T13:58:54.097Z,100492.16
2023-03-05T14:01:32.303Z,100479.69
2023-03-05T14:04:06.968Z,100474.03
2023-03-05T14:06:43.175Z,100464.56
2023-03-05T14:09:22.682Z,100472.81
2023-03-05T14:12:00.779Z,100472.63
2023-03-05T14:14:39.202Z,100464.44
2023-03-05T14:17:25.986Z,100468.44
2023-03-05T14:19:55.590Z,100457.09
2023-03-05T14:22:33.947Z,100457.69
2023-03-05T14:25:03.486Z,100449.03
2023-03-05T14:27:36.138Z,100448.38
2023-03-05T14:30:20.168Z,100445.63
2023-03-05T14:32:50.057Z,100445.38
2023-03-05T14:35:21.958Z,100438.22
2023-03-05T14:37:54.287Z,100445.78
2023-03-05T14:40:26.016Z,100430.75
2023-03-05T14:42:57.265Z,100433.75
2023-03-05T14:45:31.664Z,100429.97
2023-03-05T14:48:03.856Z,100417.50
2023-03-05T14:50:36.470Z,100420.28
2023-03-05T14:53:10.025Z,100406.59
2023-03-05T14:55:39.861Z,100407.63
2023-03-05T14:58:15.362Z,100399.91
2023-03-05T15:00:50.077Z,100394.16
2023-03-05T15:03:21.670Z,100391.38
2023-03-05T15:05:53.760Z,100384.31
2023-03-05T15:08:25.268Z,100379.19
2023-03-05T15:10:55.355Z,100381.22
2023-03-05T15:13:25.268Z,100376.00
2023-03-05T15:15:57.447Z,100375.72
2023-03-05T15:18:27.047Z,100366.16
2023-03-05T15:20:57.094Z,100360.09
2023-03-05T15:23:29.057Z,100367.47
2023-03-05T15:25:58.472Z,100355.88
2023-03-05T15:28:27.859Z,100366.94
2023-03-05T15:31:00.548Z,100373.31
2023-03-05T15:33:31.195Z,100361.41
2023-03-05T15:36:00.952Z,100364.91
2023-03-05T15:38:30.620Z,100365.47
2023-03-05T15:41:01.785Z,100373.97
2023-03-05T15:43:31.484Z,100364.25
2023-03-05T15:46:03.539Z,100361.72
2023-03-05T15:48:32.949Z,100361.41
2023-03-05T15:51:02.368Z,100359.44
2023-03-05T15:53:31.770Z,100344.78
2023-03-05T15:56:01.177Z,100343.31
2023-03-05T15:58:30.589Z,100337.59
2023-03-05T16:00:59.999Z,100339.09
2023-03-05T16:03:31.972Z,100338.25
2023-03-05T16:06:01.390Z,100336.41
2023-03-05T16:08:31.138Z,100330.19
2023-03-05T16:11:00.855Z,100331.16
2023-03-05T16:13:32.617Z,100339.00
2023-03-05T16:16:03.457Z,100331.25
2023-03-05T16:18:39.167Z,100335.28
2023-03-05T16:21:08.770Z,100345.34
2023-03-05T16:23:38.138Z,100333.91
2023-03-05T16:26:08.051Z,100326.13
2023-03-05T16:28:37.658Z,100330.38
2023-03-05T16:31:07.752Z,100333.72
2023-03-05T16:33:39.760Z,100335.66
2023-03-05T16:36:26.735Z,100330.41
2023-03-05T16:38:58.800Z,100318.44
2023-03-05T16:41:29.316Z,100317.56
2023-03-05T16:43:59.440Z,100322.28
2023-03-05T16:46:32.374Z,100317.41
2023-03-05T16:49:06.032Z,100315.19
2023-03-05T16:51:35.550Z,100311.03
2023-03-05T16:54:05.349Z,100315.91
2023-03-05T16:56:35.143Z,100315.91
2023-03-05T16:59:04.509Z,100310.53
2023-03-05T17:01:33.908Z,100310.03
2023-03-05T17:04:06.037Z,100315.25
2023-03-05T17:06:35.964Z,100310.06
2023-03-05T17:09:06.644Z,100308.88
2023-03-05T17:11:36.140Z,100319.91
2023-03-05T17:14:05.950Z,100313.34
2023-03-05T17:16:35.953Z,100312.59
2023-03-05T17:19:08.107Z,100314.09
2023-03-05T17:21:37.643Z,100317.59
2023-03-05T17:24:07.066Z,100313.09
2023-03-05T17:26:36.922Z,100306.50
2023-03-05T17:29:07.337Z,100305.03
2023-03-05T17:31:37.194Z,100299.91
2023-03-05T17:34:09.227Z,100300.44
2023-03-05T17:36:39.441Z,100304.81
2023-03-05T17:39:08.933Z,100308.34
2023-03-05T17:41:38.411Z,100304.50
2023-03-05T17:44:08.006Z,100304.19
2023-03-05T17:46:37.488Z,100300.97
2023-03-05T17:49:09.480Z,100301.66
2023-03-05T17:51:39.085Z,100296.78
2023-03-05T17:54:08.559Z,100307.19
2023-03-05T17:56:37.963Z,100295.16
2023-03-05T17:59:07.441Z,100284.06
2023-03-05T18:01:37.131Z,100295.63
2023-03-05T18:04:10.326Z,100293.25
2023-03-05T18:06:39.909Z,100292.09
2023-03-05T18:09:09.642Z,100292.28
2023-03-05T18:11:39.527Z,100295.41
2023-03-05T18:14:08.913Z,100296.91
2023-03-05T18:16:38.305Z,100282.94
2023-03-05T18:19:10.835Z,100299.22
2023-03-05T18:21:42.129Z,100292.91
2023-03-05T18:24:12.231Z,100290.22
2023-03-05T18:26:41.631Z,100280.94
2023-03-05T18:29:11.549Z,100275.41
2023-03-05T18:31:40.894Z,100273.97
2023-03-05T18:34:12.846Z,100266.84
2023-03-05T18:36:42.261Z,100263.50
2023-03-05T18:39:15.766Z,100263.38
2023-03-05T18:41:45.310Z,100255.16
2023-03-05T18:44:15.079Z,100257.13
2023-03-05T18:46:44.529Z,100257.34
2023-03-05T18:49:17.157Z,100256.44
2023-03-05T18:51:46.713Z,100251.84
2023-03-05T18:54:17.136Z,100245.97
2023-03-05T18:56:47.299Z,100244.53
2023-03-05T18:59:17.165Z,100252.34
2023-03-05T19:01:47.237Z,100247.72
2023-03-05T19:04:19.744Z,100243.91
2023-03-05T19:06:49.676Z,100247.66
2023-03-05T19:09:29.112Z,100244.22
2023-03-05T19:11:58.959Z,100230.09
2023-03-05T19:14:28.562Z,100238.25
2023-03-05T19:16:57.996Z,100232.97
2023-03-05T19:19:32.440Z,100231.59
2023-03-05T19:22:02.076Z,100234.44
2023-03-05T19:24:34.454Z,100222.50
2023-03-05T19:27:10.248Z,100218.19
2023-03-05T19:29:40.904Z,100215.59
2023-03-05T19:32:12.908Z,100216.97
2023-03-05T19:34:45.241Z,100213.22
2023-03-05T19:37:15.063Z,100216.34
2023-03-05T19:39:45.057Z,100216.88
2023-03-05T19:42:15.153Z,100214.91
2023-03-05T19:44:44.558Z,100211.16
2023-03-05T19:47:14.300Z,100208.00
2023-03-05T19:49:46.264Z,100209.88
2023-03-05T19:52:15.816Z,100212.38
2023-03-05T19:54:45.227Z,100199.44
2023-03-05T19:57:15.118Z,100201.44
2023-03-05T19:59:46.130Z,100198.56
2023-03-05T20:02:19.378Z,100201.13
2023-03-05T20:04:52.113Z,100194.59
2023-03-05T20:07:21.513Z,100193.91
2023-03-05T20:09:53.180Z,100195.75
2023-03-05T20:12:22.613Z,100193.81
2023-03-05T20:14:51.987Z,100196.66
2023-03-05T20:17:21.460Z,100190.78
2023-03-05T20:19:55.401Z,100190.91
2023-03-05T20:22:24.808Z,100187.25
2023-03-05T20:24:54.216Z,100189.78
2023-03-05T20:27:23.703Z,100185.66
2023-03-05T20:29:53.114Z,100180.09
2023-03-05T20:32:22.576Z,100173.34
2023-03-05T20:34:56.225Z,100171.38
2023-03-05T20:37:31.497Z,100174.38
2023-03-05T20:40:00.896Z,100172.50
2023-03-05T20:42:30.291Z,100169.59
2023-03-05T20:44:59.688Z,100169.59
2023-03-05T20:47:37.467Z,100159.75
2023-03-05T20:50:11.422Z,100162.38
2023-03-05T20:52:41.640Z,100165.56
2023-03-05T20:55:12.365Z,100168.56
2023-03-05T20:57:42.690Z,100161.22
2023-03-05T21:00:13.754Z,100158.84
2023-03-05T21:02:43.211Z,100158.84
2023-03-05T21:05:15.409Z,100148.47
2023-03-05T21:07:44.830Z,100144.50
2023-03-05T21:10:16.426Z,100146.88
2023-03-05T21:12:46.158Z,100141.81
2023-03-05T21:15:17.634Z,100137.53
2023-03-05T21:17:47.394Z,100144.41
2023-03-05T21:20:23.294Z,100129.91
2023-03-05T21:22:52.736Z,100124.56
2023-03-05T21:25:27.668Z,100120.03
2023-03-05T21:27:59.035Z,100117.59
2023-03-05T21:30:31.633Z,100113.91
2023-03-05T21:33:02.318Z,100121.47
2023-03-05T21:35:35.291Z,100111.22
2023-03-05T21:38:06.435Z,100104.53
2023-03-05T21:40:37.020Z,100106.72
2023-03-05T21:43:06.655Z,100107.53
2023-03-05T21:45:36.034Z,100097.94
2023-03-05T21:48:05.841Z,100093.97
2023-03-05T21:50:38.374Z,100095.56
2023-03-05T21:53:08.005Z,100096.38
2023-03-05T21:55:46.494Z,100096.28
2023-03-05T21:58:16.217Z,100089.56
2023-03-05T22:00:45.691Z,100078.09
2023-03-05T22:03:15.188Z,100077.78
2023-03-05T22:05:47.773Z,100075.94
2023-03-05T22:08:17.222Z,100074.91
2023-03-05T22:10:46.651Z,100067.19
2023-03-05T22:13:17.902Z,100061.31
2023-03-05T22:15:48.798Z,100060.31
2023-03-05T22:18:20.661Z,100057.44
2023-03-05T22:20:53.217Z,100054.75
2023-03-05T22:23:24.815Z,100054.13
2023-03-05T22:25:59.044Z,100040.88
2023-03-05T22:28:28.625Z,100038.69
2023-03-05T22:30:58.418Z,100039.00
2023-03-05T22:33:28.321Z,100035.66
2023-03-05T22:36:00.501Z,100031.97
2023-03-05T22:38:29.953Z,100031.75
2023-03-05T22:40:59.523Z,100033.44
2023-03-05T22:43:28.942Z,100027.88
2023-03-05T22:45:58.379Z,100025.19
2023-03-05T22:48:27.911Z,100027.03
2023-03-05T22:50:59.972Z,100021.47
2023-03-05T22:53:29.615Z,100020.78
2023-03-05T22:55:59.228Z,100018.34
2023-03-05T22:58:28.734Z,100007.66
2023-03-05T23:00:58.218Z,100010.63
2023-03-05T23:03:27.863Z,100004.31
2023-03-05T23:06:00.063Z,99997.91
2023-03-05T23:08:30.573Z,99996.06
2023-03-05T23:10:59.997Z,100007.06
2023-03-05T23:13:29.433Z,99992.03
2023-03-05T23:15:58.993Z,99994.69
2023-03-05T23:18:28.780Z,100002.03
2023-03-05T23:21:00.940Z,99997.06
2023-03-05T23:23:30.405Z,99993.84
2023-03-05T23:25:59.760Z,99996.53
2023-03-05T23:28:29.177Z,99990.34
2023-03-05T23:31:00.234Z,99993.53
2023-03-05T23:33:29.840Z,99997.00
2023-03-05T23:36:02.900Z,99987.53
2023-03-05T23:38:33.711Z,99986.47
2023-03-05T23:41:03.639Z,99976.97
2023-03-05T23:43:33.350Z,99984.97
2023-03-05T23:46:02.987Z,99978.03
2023-03-05T23:48:32.955Z,99981.31
2023-03-05T23:51:05.002Z,99975.97
2023-03-05T23:53:34.416Z,99973.84
2023-03-05T23:56:04.167Z,99975.78
2023-03-05T23:58:33.621Z,99963.59
